sensor_id;sensor_type;location;lat;lon;timestamp;temperature;humidity
4985;DHT22;2509;49.902;8.600;2023-12-07T00:02:20;2.60;99.90
4985;DHT22;2509;49.902;8.600;2023-12-07T00:05:22;2.60;99.90
4985;DHT22;2509;49.902;8.600;2023-12-07T00:08:24;2.50;99.90
4985;DHT22;2509;49.902;8.600;2023-12-07T00:11:26;2.50;99.90
4985;DHT22;2509;49.902;8.600;2023-12-07T00:14:29;2.50;99.90
4985;DHT22;2509;49.902;8.600;2023-12-07T00:17:31;2.50;99.90
4985;DHT22;2509;49.902;8.600;2023-12-07T00:20:32;2.40;99.90
4985;DHT22;2509;49.902;8.600;2023-12-07T00:23:35;2.30;99.90
4985;DHT22;2509;49.902;8.600;2023-12-07T00:26:37;2.30;99.90
4985;DHT22;2509;49.902;8.600;2023-12-07T00:29:41;2.20;99.90
4985;DHT22;2509;49.902;8.600;2023-12-07T00:32:43;2.20;99.90
4985;DHT22;2509;49.902;8.600;2023-12-07T00:35:45;2.10;99.90
4985;DHT22;2509;49.902;8.600;2023-12-07T00:38:47;2.00;99.90
4985;DHT22;2509;49.902;8.600;2023-12-07T00:41:49;2.00;99.90
4985;DHT22;2509;49.902;8.600;2023-12-07T00:44:52;1.90;99.90
4985;DHT22;2509;49.902;8.600;2023-12-07T00:47:54;1.80;99.90
4985;DHT22;2509;49.902;8.600;2023-12-07T00:50:56;1.80;99.90
4985;DHT22;2509;49.902;8.600;2023-12-07T00:53:57;1.70;99.90
4985;DHT22;2509;49.902;8.600;2023-12-07T00:56:59;1.70;99.90
4985;DHT22;2509;49.902;8.600;2023-12-07T01:00:03;1.70;99.90
4985;DHT22;2509;49.902;8.600;2023-12-07T01:03:06;1.70;99.90
4985;DHT22;2509;49.902;8.600;2023-12-07T01:06:08;1.70;99.90
4985;DHT22;2509;49.902;8.600;2023-12-07T01:09:11;1.60;99.90
4985;DHT22;2509;49.902;8.600;2023-12-07T01:12:13;1.60;99.90
4985;DHT22;2509;49.902;8.600;2023-12-07T01:15:16;1.60;99.90
4985;DHT22;2509;49.902;8.600;2023-12-07T01:18:18;1.60;99.90
4985;DHT22;2509;49.902;8.600;2023-12-07T01:21:20;1.40;99.90
4985;DHT22;2509;49.902;8.600;2023-12-07T01:24:22;1.40;99.90
4985;DHT22;2509;49.902;8.600;2023-12-07T01:27:24;1.40;99.90
4985;DHT22;2509;49.902;8.600;2023-12-07T01:30:27;1.40;99.90
4985;DHT22;2509;49.902;8.600;2023-12-07T01:33:29;1.40;99.90
4985;DHT22;2509;49.902;8.600;2023-12-07T01:36:31;1.30;99.90
4985;DHT22;2509;49.902;8.600;2023-12-07T01:39:33;1.30;99.90
4985;DHT22;2509;49.902;8.600;2023-12-07T01:42:34;1.30;99.90
4985;DHT22;2509;49.902;8.600;2023-12-07T01:45:38;1.20;99.90
4985;DHT22;2509;49.902;8.600;2023-12-07T01:48:40;1.20;99.90
4985;DHT22;2509;49.902;8.600;2023-12-07T01:51:41;1.20;99.90
4985;DHT22;2509;49.902;8.600;2023-12-07T01:54:43;1.10;99.90
4985;DHT22;2509;49.902;8.600;2023-12-07T01:57:45;1.10;99.90
4985;DHT22;2509;49.902;8.600;2023-12-07T02:00:49;1.10;99.90
4985;DHT22;2509;49.902;8.600;2023-12-07T02:03:51;1.00;99.90
4985;DHT22;2509;49.902;8.600;2023-12-07T02:06:54;1.00;99.90
4985;DHT22;2509;49.902;8.600;2023-12-07T02:09:58;0.90;99.90
4985;DHT22;2509;49.902;8.600;2023-12-07T02:13:00;0.90;99.90
4985;DHT22;2509;49.902;8.600;2023-12-07T02:16:07;1.00;99.90
4985;DHT22;2509;49.902;8.600;2023-12-07T02:19:23;0.90;99.90
4985;DHT22;2509;49.902;8.600;2023-12-07T02:22:29;0.80;99.90
4985;DHT22;2509;49.902;8.600;2023-12-07T02:25:36;0.80;99.90
4985;DHT22;2509;49.902;8.600;2023-12-07T02:28:40;0.80;99.90
4985;DHT22;2509;49.902;8.600;2023-12-07T02:31:41;0.80;99.90
4985;DHT22;2509;49.902;8.600;2023-12-07T02:34:44;0.80;99.90
4985;DHT22;2509;49.902;8.600;2023-12-07T02:37:48;0.90;99.90
4985;DHT22;2509;49.902;8.600;2023-12-07T02:40:50;0.80;99.90
4985;DHT22;2509;49.902;8.600;2023-12-07T02:43:54;0.80;99.90
4985;DHT22;2509;49.902;8.600;2023-12-07T02:46:58;0.80;99.90
4985;DHT22;2509;49.902;8.600;2023-12-07T02:50:00;0.80;99.90
4985;DHT22;2509;49.902;8.600;2023-12-07T02:53:02;0.80;99.90
4985;DHT22;2509;49.902;8.600;2023-12-07T02:56:05;0.80;99.90
4985;DHT22;2509;49.902;8.600;2023-12-07T02:59:08;0.70;99.90
4985;DHT22;2509;49.902;8.600;2023-12-07T03:02:10;0.70;99.90
4985;DHT22;2509;49.902;8.600;2023-12-07T03:05:12;0.70;99.90
4985;DHT22;2509;49.902;8.600;2023-12-07T03:08:14;0.70;99.90
4985;DHT22;2509;49.902;8.600;2023-12-07T03:11:15;0.60;99.90
4985;DHT22;2509;49.902;8.600;2023-12-07T03:14:18;0.60;99.90
4985;DHT22;2509;49.902;8.600;2023-12-07T03:17:21;0.60;99.90
4985;DHT22;2509;49.902;8.600;2023-12-07T03:20:23;0.60;99.90
4985;DHT22;2509;49.902;8.600;2023-12-07T03:23:24;0.60;99.90
4985;DHT22;2509;49.902;8.600;2023-12-07T03:26:26;0.60;99.90
4985;DHT22;2509;49.902;8.600;2023-12-07T03:29:30;0.60;99.90
4985;DHT22;2509;49.902;8.600;2023-12-07T03:32:32;0.50;99.90
4985;DHT22;2509;49.902;8.600;2023-12-07T03:35:33;0.40;99.90
4985;DHT22;2509;49.902;8.600;2023-12-07T03:38:35;0.40;99.90
4985;DHT22;2509;49.902;8.600;2023-12-07T03:41:37;0.40;99.90
4985;DHT22;2509;49.902;8.600;2023-12-07T03:44:40;0.40;99.90
4985;DHT22;2509;49.902;8.600;2023-12-07T03:47:42;0.40;99.90
4985;DHT22;2509;49.902;8.600;2023-12-07T03:50:44;0.40;99.90
4985;DHT22;2509;49.902;8.600;2023-12-07T03:53:46;0.40;99.90
4985;DHT22;2509;49.902;8.600;2023-12-07T03:56:48;0.50;99.90
4985;DHT22;2509;49.902;8.600;2023-12-07T03:59:52;0.50;99.90
4985;DHT22;2509;49.902;8.600;2023-12-07T04:02:54;0.50;99.90
4985;DHT22;2509;49.902;8.600;2023-12-07T04:05:56;0.50;99.90
4985;DHT22;2509;49.902;8.600;2023-12-07T04:08:57;0.50;99.90
4985;DHT22;2509;49.902;8.600;2023-12-07T04:11:59;0.50;99.90
4985;DHT22;2509;49.902;8.600;2023-12-07T04:15:03;0.50;99.90
4985;DHT22;2509;49.902;8.600;2023-12-07T04:18:05;0.50;99.90
4985;DHT22;2509;49.902;8.600;2023-12-07T04:21:06;0.50;99.90
4985;DHT22;2509;49.902;8.600;2023-12-07T04:24:08;0.50;99.90
4985;DHT22;2509;49.902;8.600;2023-12-07T04:27:10;0.50;99.90
4985;DHT22;2509;49.902;8.600;2023-12-07T04:30:14;0.60;99.90
4985;DHT22;2509;49.902;8.600;2023-12-07T04:33:15;0.60;99.90
4985;DHT22;2509;49.902;8.600;2023-12-07T04:36:17;0.50;99.90
4985;DHT22;2509;49.902;8.600;2023-12-07T04:39:19;0.50;99.90
4985;DHT22;2509;49.902;8.600;2023-12-07T04:42:21;0.50;99.90
4985;DHT22;2509;49.902;8.600;2023-12-07T04:45:24;0.50;99.90
4985;DHT22;2509;49.902;8.600;2023-12-07T04:48:26;0.50;99.90
4985;DHT22;2509;49.902;8.600;2023-12-07T04:51:28;0.50;99.90
4985;DHT22;2509;49.902;8.600;2023-12-07T04:54:29;0.50;99.90
4985;DHT22;2509;49.902;8.600;2023-12-07T04:57:31;0.50;99.90
4985;DHT22;2509;49.902;8.600;2023-12-07T05:00:35;0.50;99.90
4985;DHT22;2509;49.902;8.600;2023-12-07T05:03:36;0.50;99.90
4985;DHT22;2509;49.902;8.600;2023-12-07T05:06:38;0.50;99.90
4985;DHT22;2509;49.902;8.600;2023-12-07T05:09:40;0.50;99.90
4985;DHT22;2509;49.902;8.600;2023-12-07T05:12:42;0.60;99.90
4985;DHT22;2509;49.902;8.600;2023-12-07T05:15:45;0.60;99.90
4985;DHT22;2509;49.902;8.600;2023-12-07T05:18:47;0.60;99.90
4985;DHT22;2509;49.902;8.600;2023-12-07T05:21:49;0.50;99.90
4985;DHT22;2509;49.902;8.600;2023-12-07T05:24:51;0.50;99.90
4985;DHT22;2509;49.902;8.600;2023-12-07T05:27:52;0.50;99.90
4985;DHT22;2509;49.902;8.600;2023-12-07T05:30:55;0.50;99.90
4985;DHT22;2509;49.902;8.600;2023-12-07T05:33:57;0.50;99.90
4985;DHT22;2509;49.902;8.600;2023-12-07T05:36:59;0.50;99.90
4985;DHT22;2509;49.902;8.600;2023-12-07T05:40:01;0.50;99.90
4985;DHT22;2509;49.902;8.600;2023-12-07T05:43:05;0.40;99.90
4985;DHT22;2509;49.902;8.600;2023-12-07T05:46:10;0.40;99.90
4985;DHT22;2509;49.902;8.600;2023-12-07T05:49:11;0.40;99.90
4985;DHT22;2509;49.902;8.600;2023-12-07T05:52:13;0.40;99.90
4985;DHT22;2509;49.902;8.600;2023-12-07T05:55:15;0.40;99.90
4985;DHT22;2509;49.902;8.600;2023-12-07T05:58:17;0.30;99.90
4985;DHT22;2509;49.902;8.600;2023-12-07T06:01:20;0.30;99.90
4985;DHT22;2509;49.902;8.600;2023-12-07T06:04:22;0.30;99.90
4985;DHT22;2509;49.902;8.600;2023-12-07T06:07:24;0.40;99.90
4985;DHT22;2509;49.902;8.600;2023-12-07T06:10:26;0.40;99.90
4985;DHT22;2509;49.902;8.600;2023-12-07T06:13:27;0.40;99.90
4985;DHT22;2509;49.902;8.600;2023-12-07T06:16:30;0.50;99.90
4985;DHT22;2509;49.902;8.600;2023-12-07T06:19:32;0.50;99.90
4985;DHT22;2509;49.902;8.600;2023-12-07T06:22:34;0.40;99.90
4985;DHT22;2509;49.902;8.600;2023-12-07T06:25:36;0.40;99.90
4985;DHT22;2509;49.902;8.600;2023-12-07T06:28:38;0.50;99.90
4985;DHT22;2509;49.902;8.600;2023-12-07T06:31:44;0.50;99.90
4985;DHT22;2509;49.902;8.600;2023-12-07T06:34:46;0.40;99.90
4985;DHT22;2509;49.902;8.600;2023-12-07T06:37:47;0.50;99.90
4985;DHT22;2509;49.902;8.600;2023-12-07T06:40:49;0.50;99.90
4985;DHT22;2509;49.902;8.600;2023-12-07T06:43:51;0.40;99.90
4985;DHT22;2509;49.902;8.600;2023-12-07T06:46:54;0.50;99.90
4985;DHT22;2509;49.902;8.600;2023-12-07T06:49:56;0.50;99.90
4985;DHT22;2509;49.902;8.600;2023-12-07T06:52:59;0.60;99.90
4985;DHT22;2509;49.902;8.600;2023-12-07T06:56:01;0.60;99.90
4985;DHT22;2509;49.902;8.600;2023-12-07T06:59:03;0.70;99.90
4985;DHT22;2509;49.902;8.600;2023-12-07T07:02:06;0.70;99.90
4985;DHT22;2509;49.902;8.600;2023-12-07T07:05:08;0.70;99.90
4985;DHT22;2509;49.902;8.600;2023-12-07T07:08:11;0.70;99.90
4985;DHT22;2509;49.902;8.600;2023-12-07T07:11:13;0.70;99.90
4985;DHT22;2509;49.902;8.600;2023-12-07T07:14:15;0.60;99.90
4985;DHT22;2509;49.902;8.600;2023-12-07T07:17:18;0.60;99.90
4985;DHT22;2509;49.902;8.600;2023-12-07T07:20:20;0.60;99.90
4985;DHT22;2509;49.902;8.600;2023-12-07T07:23:22;0.60;99.90
4985;DHT22;2509;49.902;8.600;2023-12-07T07:26:24;0.50;99.90
4985;DHT22;2509;49.902;8.600;2023-12-07T07:29:26;0.60;99.90
4985;DHT22;2509;49.902;8.600;2023-12-07T07:32:29;0.60;99.90
4985;DHT22;2509;49.902;8.600;2023-12-07T07:35:31;0.60;99.90
4985;DHT22;2509;49.902;8.600;2023-12-07T07:38:33;0.60;99.90
4985;DHT22;2509;49.902;8.600;2023-12-07T07:41:35;0.70;99.90
4985;DHT22;2509;49.902;8.600;2023-12-07T07:44:37;0.80;99.90
4985;DHT22;2509;49.902;8.600;2023-12-07T07:47:40;0.80;99.90
4985;DHT22;2509;49.902;8.600;2023-12-07T07:50:42;0.90;99.90
4985;DHT22;2509;49.902;8.600;2023-12-07T07:53:43;0.90;99.90
4985;DHT22;2509;49.902;8.600;2023-12-07T07:56:45;1.00;99.90
4985;DHT22;2509;49.902;8.600;2023-12-07T07:59:47;1.00;99.90
4985;DHT22;2509;49.902;8.600;2023-12-07T08:02:51;1.00;99.90
4985;DHT22;2509;49.902;8.600;2023-12-07T08:05:52;1.10;99.90
4985;DHT22;2509;49.902;8.600;2023-12-07T08:08:54;1.30;99.90
4985;DHT22;2509;49.902;8.600;2023-12-07T08:11:56;1.40;99.90
4985;DHT22;2509;49.902;8.600;2023-12-07T08:14:58;1.40;99.90
4985;DHT22;2509;49.902;8.600;2023-12-07T08:18:01;1.50;99.90
4985;DHT22;2509;49.902;8.600;2023-12-07T08:21:04;1.50;99.90
4985;DHT22;2509;49.902;8.600;2023-12-07T08:24:08;1.60;99.90
4985;DHT22;2509;49.902;8.600;2023-12-07T08:27:11;1.50;99.90
4985;DHT22;2509;49.902;8.600;2023-12-07T08:30:15;1.50;99.90
4985;DHT22;2509;49.902;8.600;2023-12-07T08:33:18;1.60;99.90
4985;DHT22;2509;49.902;8.600;2023-12-07T08:36:20;1.60;99.90
4985;DHT22;2509;49.902;8.600;2023-12-07T08:39:22;1.70;99.90
4985;DHT22;2509;49.902;8.600;2023-12-07T08:42:25;1.90;99.90
4985;DHT22;2509;49.902;8.600;2023-12-07T08:45:27;1.90;99.90
4985;DHT22;2509;49.902;8.600;2023-12-07T08:48:30;2.00;99.90
4985;DHT22;2509;49.902;8.600;2023-12-07T08:51:32;2.00;99.90
4985;DHT22;2509;49.902;8.600;2023-12-07T08:54:35;2.00;99.90
4985;DHT22;2509;49.902;8.600;2023-12-07T08:57:37;2.10;99.90
4985;DHT22;2509;49.902;8.600;2023-12-07T09:00:39;2.10;99.90
4985;DHT22;2509;49.902;8.600;2023-12-07T09:03:42;2.10;99.90
4985;DHT22;2509;49.902;8.600;2023-12-07T09:06:44;2.20;99.90
4985;DHT22;2509;49.902;8.600;2023-12-07T09:09:45;2.20;99.90
4985;DHT22;2509;49.902;8.600;2023-12-07T09:12:48;2.30;99.90
4985;DHT22;2509;49.902;8.600;2023-12-07T09:15:50;2.30;99.90
4985;DHT22;2509;49.902;8.600;2023-12-07T09:18:53;2.40;99.90
4985;DHT22;2509;49.902;8.600;2023-12-07T09:21:55;2.40;99.90
4985;DHT22;2509;49.902;8.600;2023-12-07T09:24:56;2.50;99.90
4985;DHT22;2509;49.902;8.600;2023-12-07T09:27:58;2.50;99.90
4985;DHT22;2509;49.902;8.600;2023-12-07T09:31:00;2.60;99.90
4985;DHT22;2509;49.902;8.600;2023-12-07T09:34:03;2.60;99.90
4985;DHT22;2509;49.902;8.600;2023-12-07T09:37:06;2.60;99.90
4985;DHT22;2509;49.902;8.600;2023-12-07T09:40:09;2.70;99.90
4985;DHT22;2509;49.902;8.600;2023-12-07T09:43:15;2.70;99.90
4985;DHT22;2509;49.902;8.600;2023-12-07T09:46:18;2.70;99.90
4985;DHT22;2509;49.902;8.600;2023-12-07T09:49:21;2.80;99.90
4985;DHT22;2509;49.902;8.600;2023-12-07T09:52:24;2.80;99.90
4985;DHT22;2509;49.902;8.600;2023-12-07T09:55:25;2.70;99.90
4985;DHT22;2509;49.902;8.600;2023-12-07T09:58:27;2.60;99.90
4985;DHT22;2509;49.902;8.600;2023-12-07T10:01:29;2.60;99.90
4985;DHT22;2509;49.902;8.600;2023-12-07T10:04:32;2.60;99.90
4985;DHT22;2509;49.902;8.600;2023-12-07T10:07:36;2.60;99.90
4985;DHT22;2509;49.902;8.600;2023-12-07T10:10:38;2.60;99.90
4985;DHT22;2509;49.902;8.600;2023-12-07T10:13:39;2.60;99.90
4985;DHT22;2509;49.902;8.600;2023-12-07T10:16:53;2.50;99.90
4985;DHT22;2509;49.902;8.600;2023-12-07T10:20:08;2.40;99.90
4985;DHT22;2509;49.902;8.600;2023-12-07T10:23:10;2.40;99.90
4985;DHT22;2509;49.902;8.600;2023-12-07T10:26:12;2.30;99.90
4985;DHT22;2509;49.902;8.600;2023-12-07T10:29:17;2.30;99.90
4985;DHT22;2509;49.902;8.600;2023-12-07T10:32:19;2.30;99.90
4985;DHT22;2509;49.902;8.600;2023-12-07T10:35:24;2.30;99.90
4985;DHT22;2509;49.902;8.600;2023-12-07T10:38:26;2.30;99.90
4985;DHT22;2509;49.902;8.600;2023-12-07T10:41:28;2.20;99.90
4985;DHT22;2509;49.902;8.600;2023-12-07T10:44:31;2.20;99.90
4985;DHT22;2509;49.902;8.600;2023-12-07T10:47:36;2.10;99.90
4985;DHT22;2509;49.902;8.600;2023-12-07T10:50:41;2.10;99.90
4985;DHT22;2509;49.902;8.600;2023-12-07T10:53:45;2.00;99.90
4985;DHT22;2509;49.902;8.600;2023-12-07T10:56:49;2.00;99.90
4985;DHT22;2509;49.902;8.600;2023-12-07T10:59:53;2.00;99.90
4985;DHT22;2509;49.902;8.600;2023-12-07T11:02:56;2.00;99.90
4985;DHT22;2509;49.902;8.600;2023-12-07T11:06:01;2.00;99.90
4985;DHT22;2509;49.902;8.600;2023-12-07T11:09:08;2.00;99.90
4985;DHT22;2509;49.902;8.600;2023-12-07T11:12:13;2.00;99.90
4985;DHT22;2509;49.902;8.600;2023-12-07T11:15:18;2.00;99.90
4985;DHT22;2509;49.902;8.600;2023-12-07T11:18:21;2.00;99.90
4985;DHT22;2509;49.902;8.600;2023-12-07T11:21:24;2.00;99.90
4985;DHT22;2509;49.902;8.600;2023-12-07T11:24:26;2.00;99.90
4985;DHT22;2509;49.902;8.600;2023-12-07T11:27:29;2.00;99.90
4985;DHT22;2509;49.902;8.600;2023-12-07T11:30:34;2.10;99.90
4985;DHT22;2509;49.902;8.600;2023-12-07T11:33:37;2.10;99.90
4985;DHT22;2509;49.902;8.600;2023-12-07T11:36:41;2.10;99.90
4985;DHT22;2509;49.902;8.600;2023-12-07T11:39:43;2.10;99.90
4985;DHT22;2509;49.902;8.600;2023-12-07T11:42:46;2.10;99.90
4985;DHT22;2509;49.902;8.600;2023-12-07T11:45:49;2.20;99.90
4985;DHT22;2509;49.902;8.600;2023-12-07T11:48:52;2.20;99.90
4985;DHT22;2509;49.902;8.600;2023-12-07T11:51:55;2.20;99.90
4985;DHT22;2509;49.902;8.600;2023-12-07T11:54:57;2.20;99.90
4985;DHT22;2509;49.902;8.600;2023-12-07T11:57:59;2.30;99.90
4985;DHT22;2509;49.902;8.600;2023-12-07T12:01:31;2.30;99.90
4985;DHT22;2509;49.902;8.600;2023-12-07T12:04:39;2.30;99.90
4985;DHT22;2509;49.902;8.600;2023-12-07T12:07:43;2.20;99.90
4985;DHT22;2509;49.902;8.600;2023-12-07T12:10:52;2.30;99.90
4985;DHT22;2509;49.902;8.600;2023-12-07T12:21:17;2.40;99.90
4985;DHT22;2509;49.902;8.600;2023-12-07T12:24:27;2.40;99.90
4985;DHT22;2509;49.902;8.600;2023-12-07T12:27:37;2.30;99.90
4985;DHT22;2509;49.902;8.600;2023-12-07T12:30:40;2.30;99.90
4985;DHT22;2509;49.902;8.600;2023-12-07T12:33:47;2.50;99.90
4985;DHT22;2509;49.902;8.600;2023-12-07T12:36:55;2.50;99.90
4985;DHT22;2509;49.902;8.600;2023-12-07T12:40:05;2.50;99.90
4985;DHT22;2509;49.902;8.600;2023-12-07T12:43:11;2.60;99.90
4985;DHT22;2509;49.902;8.600;2023-12-07T12:46:17;2.60;99.90
4985;DHT22;2509;49.902;8.600;2023-12-07T12:49:35;2.60;99.90
4985;DHT22;2509;49.902;8.600;2023-12-07T12:52:37;2.70;99.90
4985;DHT22;2509;49.902;8.600;2023-12-07T12:55:44;2.70;99.90
4985;DHT22;2509;49.902;8.600;2023-12-07T12:58:50;2.70;99.90
4985;DHT22;2509;49.902;8.600;2023-12-07T13:01:56;2.60;99.90
4985;DHT22;2509;49.902;8.600;2023-12-07T13:05:07;2.60;99.90
4985;DHT22;2509;49.902;8.600;2023-12-07T13:08:09;2.60;99.90
4985;DHT22;2509;49.902;8.600;2023-12-07T13:11:19;2.60;99.90
4985;DHT22;2509;49.902;8.600;2023-12-07T13:14:32;2.60;99.90
4985;DHT22;2509;49.902;8.600;2023-12-07T13:17:44;2.70;99.90
4985;DHT22;2509;49.902;8.600;2023-12-07T13:20:58;2.70;99.90
4985;DHT22;2509;49.902;8.600;2023-12-07T13:24:18;2.70;99.90
4985;DHT22;2509;49.902;8.600;2023-12-07T13:27:29;2.70;99.90
4985;DHT22;2509;49.902;8.600;2023-12-07T13:30:34;2.70;99.90
4985;DHT22;2509;49.902;8.600;2023-12-07T13:33:36;2.80;99.90
4985;DHT22;2509;49.902;8.600;2023-12-07T13:36:42;2.80;99.90
4985;DHT22;2509;49.902;8.600;2023-12-07T13:39:46;2.90;99.90
4985;DHT22;2509;49.902;8.600;2023-12-07T13:42:54;2.80;99.90
4985;DHT22;2509;49.902;8.600;2023-12-07T13:45:56;2.90;99.90
4985;DHT22;2509;49.902;8.600;2023-12-07T13:48:59;2.90;99.90
4985;DHT22;2509;49.902;8.600;2023-12-07T13:52:01;2.90;99.90
4985;DHT22;2509;49.902;8.600;2023-12-07T13:55:03;2.90;99.90
4985;DHT22;2509;49.902;8.600;2023-12-07T13:58:06;2.90;99.90
4985;DHT22;2509;49.902;8.600;2023-12-07T14:01:08;2.80;99.90
4985;DHT22;2509;49.902;8.600;2023-12-07T14:04:10;2.90;99.90
4985;DHT22;2509;49.902;8.600;2023-12-07T14:07:13;2.90;99.90
4985;DHT22;2509;49.902;8.600;2023-12-07T14:10:15;2.90;99.90
4985;DHT22;2509;49.902;8.600;2023-12-07T14:13:18;2.90;99.90
4985;DHT22;2509;49.902;8.600;2023-12-07T14:16:20;2.90;99.90
4985;DHT22;2509;49.902;8.600;2023-12-07T14:19:22;2.90;99.90
4985;DHT22;2509;49.902;8.600;2023-12-07T14:22:24;2.90;99.90
4985;DHT22;2509;49.902;8.600;2023-12-07T14:25:25;2.90;99.90
4985;DHT22;2509;49.902;8.600;2023-12-07T14:28:29;2.90;99.90
4985;DHT22;2509;49.902;8.600;2023-12-07T14:31:31;2.90;99.90
4985;DHT22;2509;49.902;8.600;2023-12-07T14:34:34;2.90;99.90
4985;DHT22;2509;49.902;8.600;2023-12-07T14:37:35;2.90;99.90
4985;DHT22;2509;49.902;8.600;2023-12-07T14:40:37;2.90;99.90
4985;DHT22;2509;49.902;8.600;2023-12-07T14:43:40;2.90;99.90
4985;DHT22;2509;49.902;8.600;2023-12-07T14:46:42;2.90;99.90
4985;DHT22;2509;49.902;8.600;2023-12-07T14:49:44;2.70;99.90
4985;DHT22;2509;49.902;8.600;2023-12-07T14:52:46;2.70;99.90
4985;DHT22;2509;49.902;8.600;2023-12-07T14:55:48;2.60;99.90
4985;DHT22;2509;49.902;8.600;2023-12-07T14:58:53;2.60;99.90
4985;DHT22;2509;49.902;8.600;2023-12-07T15:01:54;2.60;99.90
4985;DHT22;2509;49.902;8.600;2023-12-07T15:04:56;2.60;99.90
4985;DHT22;2509;49.902;8.600;2023-12-07T15:07:58;2.50;99.90
4985;DHT22;2509;49.902;8.600;2023-12-07T15:11:00;2.40;99.90
4985;DHT22;2509;49.902;8.600;2023-12-07T15:14:03;2.40;99.90
4985;DHT22;2509;49.902;8.600;2023-12-07T15:17:05;2.30;99.90
4985;DHT22;2509;49.902;8.600;2023-12-07T15:20:07;2.20;99.90
4985;DHT22;2509;49.902;8.600;2023-12-07T15:23:10;2.20;99.90
4985;DHT22;2509;49.902;8.600;2023-12-07T15:26:12;2.20;99.90
4985;DHT22;2509;49.902;8.600;2023-12-07T15:29:15;2.10;99.90
4985;DHT22;2509;49.902;8.600;2023-12-07T15:32:17;2.10;99.90
4985;DHT22;2509;49.902;8.600;2023-12-07T15:35:18;2.00;99.90
4985;DHT22;2509;49.902;8.600;2023-12-07T15:38:21;2.00;99.90
4985;DHT22;2509;49.902;8.600;2023-12-07T15:41:22;1.90;99.90
4985;DHT22;2509;49.902;8.600;2023-12-07T15:44:29;1.90;99.90
4985;DHT22;2509;49.902;8.600;2023-12-07T15:47:37;1.90;99.90
4985;DHT22;2509;49.902;8.600;2023-12-07T15:54:13;1.80;99.90
4985;DHT22;2509;49.902;8.600;2023-12-07T15:57:14;1.80;99.90
4985;DHT22;2509;49.902;8.600;2023-12-07T16:00:18;1.70;99.90
4985;DHT22;2509;49.902;8.600;2023-12-07T16:03:20;1.70;99.90
4985;DHT22;2509;49.902;8.600;2023-12-07T16:06:21;1.70;99.90
4985;DHT22;2509;49.902;8.600;2023-12-07T16:09:23;1.70;99.90
4985;DHT22;2509;49.902;8.600;2023-12-07T16:12:25;1.60;99.90
4985;DHT22;2509;49.902;8.600;2023-12-07T16:15:28;1.60;99.90
4985;DHT22;2509;49.902;8.600;2023-12-07T16:18:48;1.60;99.90
4985;DHT22;2509;49.902;8.600;2023-12-07T16:21:50;1.60;99.90
4985;DHT22;2509;49.902;8.600;2023-12-07T16:24:52;1.60;99.90
4985;DHT22;2509;49.902;8.600;2023-12-07T16:27:53;1.50;99.90
4985;DHT22;2509;49.902;8.600;2023-12-07T16:30:57;1.50;99.90
4985;DHT22;2509;49.902;8.600;2023-12-07T16:33:59;1.50;99.90
4985;DHT22;2509;49.902;8.600;2023-12-07T16:37:04;1.50;99.90
4985;DHT22;2509;49.902;8.600;2023-12-07T16:40:08;1.40;99.90
4985;DHT22;2509;49.902;8.600;2023-12-07T16:43:10;1.40;99.90
4985;DHT22;2509;49.902;8.600;2023-12-07T16:46:13;1.40;99.90
4985;DHT22;2509;49.902;8.600;2023-12-07T16:49:15;1.40;99.90
4985;DHT22;2509;49.902;8.600;2023-12-07T16:52:17;1.30;99.90
4985;DHT22;2509;49.902;8.600;2023-12-07T16:55:19;1.30;99.90
4985;DHT22;2509;49.902;8.600;2023-12-07T16:58:20;1.30;99.90
4985;DHT22;2509;49.902;8.600;2023-12-07T17:01:23;1.30;99.90
4985;DHT22;2509;49.902;8.600;2023-12-07T17:04:25;1.30;99.90
4985;DHT22;2509;49.902;8.600;2023-12-07T17:07:27;1.20;99.90
4985;DHT22;2509;49.902;8.600;2023-12-07T17:10:29;1.20;99.90
4985;DHT22;2509;49.902;8.600;2023-12-07T17:13:31;1.20;99.90
4985;DHT22;2509;49.902;8.600;2023-12-07T17:16:34;1.20;99.90
4985;DHT22;2509;49.902;8.600;2023-12-07T17:19:36;1.20;99.90
4985;DHT22;2509;49.902;8.600;2023-12-07T17:22:38;1.10;99.90
4985;DHT22;2509;49.902;8.600;2023-12-07T17:25:40;1.20;99.90
4985;DHT22;2509;49.902;8.600;2023-12-07T17:28:41;1.20;99.90
4985;DHT22;2509;49.902;8.600;2023-12-07T17:31:45;1.20;99.90
4985;DHT22;2509;49.902;8.600;2023-12-07T17:34:47;1.20;99.90
4985;DHT22;2509;49.902;8.600;2023-12-07T17:37:48;1.20;99.90
4985;DHT22;2509;49.902;8.600;2023-12-07T17:40:50;1.20;99.90
4985;DHT22;2509;49.902;8.600;2023-12-07T17:43:52;1.10;99.90
4985;DHT22;2509;49.902;8.600;2023-12-07T17:46:55;1.10;99.90
4985;DHT22;2509;49.902;8.600;2023-12-07T17:49:57;1.20;99.90
4985;DHT22;2509;49.902;8.600;2023-12-07T17:52:58;1.20;99.90
4985;DHT22;2509;49.902;8.600;2023-12-07T17:56:02;1.20;99.90
4985;DHT22;2509;49.902;8.600;2023-12-07T17:59:04;1.20;99.90
4985;DHT22;2509;49.902;8.600;2023-12-07T18:02:08;1.20;99.90
4985;DHT22;2509;49.902;8.600;2023-12-07T18:05:09;1.20;99.90
4985;DHT22;2509;49.902;8.600;2023-12-07T18:08:11;1.20;99.90
4985;DHT22;2509;49.902;8.600;2023-12-07T18:11:18;1.20;99.90
4985;DHT22;2509;49.902;8.600;2023-12-07T18:14:20;1.20;99.90
4985;DHT22;2509;49.902;8.600;2023-12-07T18:17:23;1.20;99.90
4985;DHT22;2509;49.902;8.600;2023-12-07T18:20:25;1.30;99.90
4985;DHT22;2509;49.902;8.600;2023-12-07T18:23:27;1.30;99.90
4985;DHT22;2509;49.902;8.600;2023-12-07T18:26:29;1.20;99.90
4985;DHT22;2509;49.902;8.600;2023-12-07T18:29:35;1.30;99.90
4985;DHT22;2509;49.902;8.600;2023-12-07T18:32:39;1.30;99.90
4985;DHT22;2509;49.902;8.600;2023-12-07T18:35:41;1.20;99.90
4985;DHT22;2509;49.902;8.600;2023-12-07T18:38:43;1.20;99.90
4985;DHT22;2509;49.902;8.600;2023-12-07T18:41:44;1.20;99.90
4985;DHT22;2509;49.902;8.600;2023-12-07T18:44:46;1.20;99.90
4985;DHT22;2509;49.902;8.600;2023-12-07T18:47:49;1.10;99.90
4985;DHT22;2509;49.902;8.600;2023-12-07T18:50:51;1.10;99.90
4985;DHT22;2509;49.902;8.600;2023-12-07T18:53:52;1.10;99.90
4985;DHT22;2509;49.902;8.600;2023-12-07T18:56:54;1.00;99.90
4985;DHT22;2509;49.902;8.600;2023-12-07T18:59:56;1.00;99.90
4985;DHT22;2509;49.902;8.600;2023-12-07T19:02:59;0.90;99.90
4985;DHT22;2509;49.902;8.600;2023-12-07T19:06:01;0.90;99.90
4985;DHT22;2509;49.902;8.600;2023-12-07T19:09:03;0.80;99.90
4985;DHT22;2509;49.902;8.600;2023-12-07T19:12:06;0.80;99.90
4985;DHT22;2509;49.902;8.600;2023-12-07T19:15:09;0.70;99.90
4985;DHT22;2509;49.902;8.600;2023-12-07T19:18:12;0.70;99.90
4985;DHT22;2509;49.902;8.600;2023-12-07T19:21:14;0.60;99.90
4985;DHT22;2509;49.902;8.600;2023-12-07T19:24:16;0.60;99.90
4985;DHT22;2509;49.902;8.600;2023-12-07T19:27:18;0.50;99.90
4985;DHT22;2509;49.902;8.600;2023-12-07T19:30:19;0.50;99.90
4985;DHT22;2509;49.902;8.600;2023-12-07T19:33:23;0.50;99.90
4985;DHT22;2509;49.902;8.600;2023-12-07T19:36:25;0.60;99.90
4985;DHT22;2509;49.902;8.600;2023-12-07T19:39:27;0.60;99.90
4985;DHT22;2509;49.902;8.600;2023-12-07T19:42:29;0.60;99.90
4985;DHT22;2509;49.902;8.600;2023-12-07T19:45:30;0.60;99.90
4985;DHT22;2509;49.902;8.600;2023-12-07T19:48:36;0.60;99.90
4985;DHT22;2509;49.902;8.600;2023-12-07T19:51:38;0.60;99.90
4985;DHT22;2509;49.902;8.600;2023-12-07T19:54:39;0.60;99.90
4985;DHT22;2509;49.902;8.600;2023-12-07T19:57:42;0.60;99.90
4985;DHT22;2509;49.902;8.600;2023-12-07T20:00:43;0.60;99.90
4985;DHT22;2509;49.902;8.600;2023-12-07T20:03:46;0.60;99.90
4985;DHT22;2509;49.902;8.600;2023-12-07T20:06:48;0.60;99.90
4985;DHT22;2509;49.902;8.600;2023-12-07T20:09:50;0.60;99.90
4985;DHT22;2509;49.902;8.600;2023-12-07T20:12:51;0.60;99.90
4985;DHT22;2509;49.902;8.600;2023-12-07T20:15:53;0.60;99.90
4985;DHT22;2509;49.902;8.600;2023-12-07T20:18:56;0.70;99.90
4985;DHT22;2509;49.902;8.600;2023-12-07T20:21:58;0.70;99.90
4985;DHT22;2509;49.902;8.600;2023-12-07T20:25:00;0.70;99.90